sensor_id;sensor_type;location;lat;lon;timestamp;P1;durP1;ratioP1;P2;durP2;ratioP2
9228;SDS011;4649;42.644;23.284;2023-04-25T00:01:12;1.33;;;1.33;;
9228;SDS011;4649;42.644;23.284;2023-04-25T00:03:48;1.00;;;1.00;;
9228;SDS011;4649;42.644;23.284;2023-04-25T00:06:17;0.80;;;0.80;;
9228;SDS011;4649;42.644;23.284;2023-04-25T00:12:07;0.40;;;0.40;;
9228;SDS011;4649;42.644;23.284;2023-04-25T00:14:54;0.50;;;0.50;;
9228;SDS011;4649;42.644;23.284;2023-04-25T00:17:30;3.70;;;0.60;;
9228;SDS011;4649;42.644;23.284;2023-04-25T00:19:59;0.43;;;0.43;;
9228;SDS011;4649;42.644;23.284;2023-04-25T00:22:45;1.13;;;0.30;;
9228;SDS011;4649;42.644;23.284;2023-04-25T00:25:14;3.17;;;1.00;;
9228;SDS011;4649;42.644;23.284;2023-04-25T00:28:00;0.40;;;0.40;;
9228;SDS011;4649;42.644;23.284;2023-04-25T00:30:41;0.40;;;0.40;;
9228;SDS011;4649;42.644;23.284;2023-04-25T00:33:40;0.40;;;0.40;;
9228;SDS011;4649;42.644;23.284;2023-04-25T00:36:19;0.50;;;0.50;;
9228;SDS011;4649;42.644;23.284;2023-04-25T00:38:57;0.60;;;0.60;;
9228;SDS011;4649;42.644;23.284;2023-04-25T00:41:30;1.13;;;1.13;;
9228;SDS011;4649;42.644;23.284;2023-04-25T00:44:22;1.33;;;1.23;;
9228;SDS011;4649;42.644;23.284;2023-04-25T00:47:33;1.40;;;1.40;;
9228;SDS011;4649;42.644;23.284;2023-04-25T00:50:19;1.47;;;1.47;;
9228;SDS011;4649;42.644;23.284;2023-04-25T00:53:14;1.80;;;1.70;;
9228;SDS011;4649;42.644;23.284;2023-04-25T00:56:01;2.40;;;2.30;;
9228;SDS011;4649;42.644;23.284;2023-04-25T00:59:05;2.67;;;2.47;;
9228;SDS011;4649;42.644;23.284;2023-04-25T01:01:41;4.50;;;2.73;;
9228;SDS011;4649;42.644;23.284;2023-04-25T01:04:33;3.63;;;3.33;;
9228;SDS011;4649;42.644;23.284;2023-04-25T01:07:09;4.30;;;3.57;;
9228;SDS011;4649;42.644;23.284;2023-04-25T01:10:11;2.97;;;2.87;;
9228;SDS011;4649;42.644;23.284;2023-04-25T01:16:14;3.20;;;3.10;;
9228;SDS011;4649;42.644;23.284;2023-04-25T01:19:04;4.03;;;3.73;;
9228;SDS011;4649;42.644;23.284;2023-04-25T01:31:37;4.93;;;4.63;;
9228;SDS011;4649;42.644;23.284;2023-04-25T01:34:20;4.93;;;4.60;;
9228;SDS011;4649;42.644;23.284;2023-04-25T01:36:53;7.70;;;4.70;;
9228;SDS011;4649;42.644;23.284;2023-04-25T01:39:24;3.80;;;3.60;;
9228;SDS011;4649;42.644;23.284;2023-04-25T01:45:53;4.73;;;4.33;;
9228;SDS011;4649;42.644;23.284;2023-04-25T01:55:20;4.80;;;4.50;;
9228;SDS011;4649;42.644;23.284;2023-04-25T01:58:04;4.33;;;4.13;;
9228;SDS011;4649;42.644;23.284;2023-04-25T02:00:43;5.20;;;4.90;;
9228;SDS011;4649;42.644;23.284;2023-04-25T02:03:50;4.47;;;4.27;;
9228;SDS011;4649;42.644;23.284;2023-04-25T02:06:38;5.47;;;5.07;;
9228;SDS011;4649;42.644;23.284;2023-04-25T02:09:52;4.90;;;4.70;;
9228;SDS011;4649;42.644;23.284;2023-04-25T02:12:29;5.27;;;4.97;;
9228;SDS011;4649;42.644;23.284;2023-04-25T02:15:21;6.20;;;4.83;;
9228;SDS011;4649;42.644;23.284;2023-04-25T02:18:21;5.50;;;5.20;;
9228;SDS011;4649;42.644;23.284;2023-04-25T02:24:32;6.53;;;6.13;;
9228;SDS011;4649;42.644;23.284;2023-04-25T02:30:33;6.57;;;5.77;;
9228;SDS011;4649;42.644;23.284;2023-04-25T02:35:45;6.07;;;5.67;;
9228;SDS011;4649;42.644;23.284;2023-04-25T02:38:15;7.53;;;6.83;;
9228;SDS011;4649;42.644;23.284;2023-04-25T02:47:18;8.30;;;7.63;;
9228;SDS011;4649;42.644;23.284;2023-04-25T02:50:20;6.83;;;6.33;;
9228;SDS011;4649;42.644;23.284;2023-04-25T02:52:51;6.50;;;6.10;;
9228;SDS011;4649;42.644;23.284;2023-04-25T02:55:57;7.50;;;7.00;;
9228;SDS011;4649;42.644;23.284;2023-04-25T02:59:19;7.37;;;6.87;;
9228;SDS011;4649;42.644;23.284;2023-04-25T03:02:07;8.07;;;7.47;;
9228;SDS011;4649;42.644;23.284;2023-04-25T03:04:38;8.30;;;7.80;;
9228;SDS011;4649;42.644;23.284;2023-04-25T03:07:21;7.97;;;7.47;;
9228;SDS011;4649;42.644;23.284;2023-04-25T03:13:06;9.07;;;7.47;;
9228;SDS011;4649;42.644;23.284;2023-04-25T03:16:03;6.63;;;6.23;;
9228;SDS011;4649;42.644;23.284;2023-04-25T03:21:48;6.20;;;5.90;;
9228;SDS011;4649;42.644;23.284;2023-04-25T03:24:21;7.30;;;6.90;;
9228;SDS011;4649;42.644;23.284;2023-04-25T03:27:02;6.73;;;6.23;;
9228;SDS011;4649;42.644;23.284;2023-04-25T03:32:40;7.43;;;6.93;;
9228;SDS011;4649;42.644;23.284;2023-04-25T03:35:24;9.57;;;8.97;;
9228;SDS011;4649;42.644;23.284;2023-04-25T03:38:09;8.50;;;8.07;;
9228;SDS011;4649;42.644;23.284;2023-04-25T03:40:54;8.00;;;7.60;;
9228;SDS011;4649;42.644;23.284;2023-04-25T03:43:27;8.43;;;7.63;;
9228;SDS011;4649;42.644;23.284;2023-04-25T03:48:36;7.30;;;6.87;;
9228;SDS011;4649;42.644;23.284;2023-04-25T03:51:18;4.13;;;3.97;;
9228;SDS011;4649;42.644;23.284;2023-04-25T03:53:55;3.30;;;3.10;;
9228;SDS011;4649;42.644;23.284;2023-04-25T03:56:39;2.60;;;2.50;;
9228;SDS011;4649;42.644;23.284;2023-04-25T03:59:15;1.63;;;1.63;;
9228;SDS011;4649;42.644;23.284;2023-04-25T04:01:45;2.27;;;2.17;;
9228;SDS011;4649;42.644;23.284;2023-04-25T04:04:28;3.00;;;2.03;;
9228;SDS011;4649;42.644;23.284;2023-04-25T04:06:55;5.50;;;5.20;;
9228;SDS011;4649;42.644;23.284;2023-04-25T04:09:32;5.97;;;5.63;;
9228;SDS011;4649;42.644;23.284;2023-04-25T04:14:55;3.87;;;2.90;;
9228;SDS011;4649;42.644;23.284;2023-04-25T04:17:43;4.77;;;4.57;;
9228;SDS011;4649;42.644;23.284;2023-04-25T04:23:23;5.07;;;4.83;;
9228;SDS011;4649;42.644;23.284;2023-04-25T04:25:54;6.23;;;5.83;;
9228;SDS011;4649;42.644;23.284;2023-04-25T04:28:25;7.53;;;6.83;;
9228;SDS011;4649;42.644;23.284;2023-04-25T04:30:52;7.10;;;6.63;;
9228;SDS011;4649;42.644;23.284;2023-04-25T04:33:34;7.30;;;6.80;;
9228;SDS011;4649;42.644;23.284;2023-04-25T04:36:07;7.10;;;6.70;;
9228;SDS011;4649;42.644;23.284;2023-04-25T04:39:11;8.20;;;7.60;;
9228;SDS011;4649;42.644;23.284;2023-04-25T04:42:14;8.57;;;8.07;;
9228;SDS011;4649;42.644;23.284;2023-04-25T04:45:12;3.83;;;3.53;;
9228;SDS011;4649;42.644;23.284;2023-04-25T04:47:45;1.33;;;1.33;;
9228;SDS011;4649;42.644;23.284;2023-04-25T04:50:46;1.03;;;1.03;;
9228;SDS011;4649;42.644;23.284;2023-04-25T04:56:34;1.10;;;1.10;;
9228;SDS011;4649;42.644;23.284;2023-04-25T05:22:25;6.63;;;5.50;;
9228;SDS011;4649;42.644;23.284;2023-04-25T05:25:08;8.40;;;7.80;;
9228;SDS011;4649;42.644;23.284;2023-04-25T05:27:52;8.07;;;7.57;;
9228;SDS011;4649;42.644;23.284;2023-04-25T05:30:49;8.73;;;8.23;;
9228;SDS011;4649;42.644;23.284;2023-04-25T05:33:26;9.47;;;8.87;;
9228;SDS011;4649;42.644;23.284;2023-04-25T05:35:56;7.93;;;7.13;;
9228;SDS011;4649;42.644;23.284;2023-04-25T05:38:42;8.53;;;7.93;;
9228;SDS011;4649;42.644;23.284;2023-04-25T05:41:18;11.53;;;7.63;;
9228;SDS011;4649;42.644;23.284;2023-04-25T05:43:49;7.83;;;7.33;;
9228;SDS011;4649;42.644;23.284;2023-04-25T05:46:34;7.17;;;6.77;;
9228;SDS011;4649;42.644;23.284;2023-04-25T05:49:13;7.17;;;6.60;;
9228;SDS011;4649;42.644;23.284;2023-04-25T05:51:46;10.53;;;9.90;;
9228;SDS011;4649;42.644;23.284;2023-04-25T05:54:33;9.60;;;9.00;;
9228;SDS011;4649;42.644;23.284;2023-04-25T05:59:36;11.80;;;10.67;;
9228;SDS011;4649;42.644;23.284;2023-04-25T06:02:39;11.57;;;10.77;;
9228;SDS011;4649;42.644;23.284;2023-04-25T06:05:41;10.93;;;10.20;;
9228;SDS011;4649;42.644;23.284;2023-04-25T06:08:22;12.03;;;11.13;;
9228;SDS011;4649;42.644;23.284;2023-04-25T06:11:23;10.80;;;10.10;;
9228;SDS011;4649;42.644;23.284;2023-04-25T06:14:09;11.40;;;10.60;;
9228;SDS011;4649;42.644;23.284;2023-04-25T06:16:57;10.77;;;10.10;;
9228;SDS011;4649;42.644;23.284;2023-04-25T06:19:50;10.63;;;9.83;;
9228;SDS011;4649;42.644;23.284;2023-04-25T06:22:58;11.63;;;10.83;;
9228;SDS011;4649;42.644;23.284;2023-04-25T06:25:48;12.47;;;11.50;;
9228;SDS011;4649;42.644;23.284;2023-04-25T06:28:49;10.77;;;9.67;;
9228;SDS011;4649;42.644;23.284;2023-04-25T06:31:44;9.43;;;8.70;;
9228;SDS011;4649;42.644;23.284;2023-04-25T06:34:15;9.67;;;8.90;;
9228;SDS011;4649;42.644;23.284;2023-04-25T06:37:20;8.27;;;7.67;;
9228;SDS011;4649;42.644;23.284;2023-04-25T06:40:09;9.47;;;8.83;;
9228;SDS011;4649;42.644;23.284;2023-04-25T06:43:24;8.27;;;7.77;;
9228;SDS011;4649;42.644;23.284;2023-04-25T06:46:19;10.63;;;10.03;;
9228;SDS011;4649;42.644;23.284;2023-04-25T06:51:41;12.17;;;11.20;;
9228;SDS011;4649;42.644;23.284;2023-04-25T06:54:36;13.33;;;12.50;;
9228;SDS011;4649;42.644;23.284;2023-04-25T06:57:39;13.00;;;11.97;;
9228;SDS011;4649;42.644;23.284;2023-04-25T07:00:53;10.27;;;9.57;;
9228;SDS011;4649;42.644;23.284;2023-04-25T07:06:35;10.77;;;9.97;;
9228;SDS011;4649;42.644;23.284;2023-04-25T07:18:20;8.67;;;8.13;;
9228;SDS011;4649;42.644;23.284;2023-04-25T07:33:51;7.20;;;6.47;;
9228;SDS011;4649;42.644;23.284;2023-04-25T07:37:25;8.03;;;7.27;;
9228;SDS011;4649;42.644;23.284;2023-04-25T07:43:19;9.47;;;5.93;;
9228;SDS011;4649;42.644;23.284;2023-04-25T07:46:10;7.10;;;6.40;;
9228;SDS011;4649;42.644;23.284;2023-04-25T07:52:47;9.07;;;6.83;;
9228;SDS011;4649;42.644;23.284;2023-04-25T07:56:11;6.70;;;5.90;;
9228;SDS011;4649;42.644;23.284;2023-04-25T07:59:07;5.53;;;5.20;;
9228;SDS011;4649;42.644;23.284;2023-04-25T08:02:16;5.60;;;5.20;;
9228;SDS011;4649;42.644;23.284;2023-04-25T08:05:35;5.47;;;4.40;;
9228;SDS011;4649;42.644;23.284;2023-04-25T08:11:19;3.83;;;3.63;;
9228;SDS011;4649;42.644;23.284;2023-04-25T08:13:46;4.07;;;3.77;;
9228;SDS011;4649;42.644;23.284;2023-04-25T08:16:15;4.30;;;4.00;;
9228;SDS011;4649;42.644;23.284;2023-04-25T08:18:45;4.83;;;3.70;;
9228;SDS011;4649;42.644;23.284;2023-04-25T08:21:19;3.83;;;2.90;;
9228;SDS011;4649;42.644;23.284;2023-04-25T08:23:55;3.00;;;2.83;;
9228;SDS011;4649;42.644;23.284;2023-04-25T08:26:26;2.37;;;1.80;;
9228;SDS011;4649;42.644;23.284;2023-04-25T08:28:56;1.20;;;1.20;;
9228;SDS011;4649;42.644;23.284;2023-04-25T08:31:40;0.87;;;0.87;;
9228;SDS011;4649;42.644;23.284;2023-04-25T08:34:11;2.93;;;1.60;;
9228;SDS011;4649;42.644;23.284;2023-04-25T08:36:38;2.93;;;1.30;;
9228;SDS011;4649;42.644;23.284;2023-04-25T08:39:08;1.60;;;1.50;;
9228;SDS011;4649;42.644;23.284;2023-04-25T08:41:36;1.07;;;1.07;;
9228;SDS011;4649;42.644;23.284;2023-04-25T08:44:03;1.97;;;0.90;;
9228;SDS011;4649;42.644;23.284;2023-04-25T08:46:31;3.80;;;1.00;;
9228;SDS011;4649;42.644;23.284;2023-04-25T08:49:00;1.00;;;1.00;;
9228;SDS011;4649;42.644;23.284;2023-04-25T08:51:27;0.77;;;0.77;;
9228;SDS011;4649;42.644;23.284;2023-04-25T08:54:01;1.87;;;1.03;;
9228;SDS011;4649;42.644;23.284;2023-04-25T08:56:37;2.00;;;1.03;;
9228;SDS011;4649;42.644;23.284;2023-04-25T08:59:04;0.80;;;0.80;;
9228;SDS011;4649;42.644;23.284;2023-04-25T09:01:33;0.83;;;0.83;;
9228;SDS011;4649;42.644;23.284;2023-04-25T09:04:00;2.43;;;0.80;;
9228;SDS011;4649;42.644;23.284;2023-04-25T09:06:27;0.73;;;0.73;;
9228;SDS011;4649;42.644;23.284;2023-04-25T09:08:55;1.03;;;1.03;;
9228;SDS011;4649;42.644;23.284;2023-04-25T09:11:30;1.10;;;1.10;;
9228;SDS011;4649;42.644;23.284;2023-04-25T09:14:09;0.90;;;0.90;;
9228;SDS011;4649;42.644;23.284;2023-04-25T09:16:46;1.00;;;1.00;;
9228;SDS011;4649;42.644;23.284;2023-04-25T09:19:24;0.90;;;0.90;;
9228;SDS011;4649;42.644;23.284;2023-04-25T09:21:53;0.87;;;0.87;;
9228;SDS011;4649;42.644;23.284;2023-04-25T09:24:28;1.20;;;1.20;;
9228;SDS011;4649;42.644;23.284;2023-04-25T09:26:58;2.20;;;1.20;;
9228;SDS011;4649;42.644;23.284;2023-04-25T09:29:29;1.37;;;1.27;;
9228;SDS011;4649;42.644;23.284;2023-04-25T09:32:10;3.90;;;1.80;;
9228;SDS011;4649;42.644;23.284;2023-04-25T09:34:43;1.23;;;1.23;;
9228;SDS011;4649;42.644;23.284;2023-04-25T09:37:16;1.17;;;1.07;;
9228;SDS011;4649;42.644;23.284;2023-04-25T09:39:45;3.97;;;1.27;;
9228;SDS011;4649;42.644;23.284;2023-04-25T09:42:21;1.63;;;1.07;;
9228;SDS011;4649;42.644;23.284;2023-04-25T09:45:00;1.10;;;1.10;;
9228;SDS011;4649;42.644;23.284;2023-04-25T09:47:44;1.20;;;1.03;;
9228;SDS011;4649;42.644;23.284;2023-04-25T09:50:16;1.37;;;1.37;;
9228;SDS011;4649;42.644;23.284;2023-04-25T09:53:02;1.87;;;1.77;;
9228;SDS011;4649;42.644;23.284;2023-04-25T09:55:36;0.70;;;0.70;;
9228;SDS011;4649;42.644;23.284;2023-04-25T10:04:34;0.80;;;0.80;;
9228;SDS011;4649;42.644;23.284;2023-04-25T10:07:09;1.20;;;1.20;;
9228;SDS011;4649;42.644;23.284;2023-04-25T10:09:38;0.87;;;0.87;;
9228;SDS011;4649;42.644;23.284;2023-04-25T10:12:06;4.40;;;1.00;;
9228;SDS011;4649;42.644;23.284;2023-04-25T10:14:35;1.13;;;1.03;;
9228;SDS011;4649;42.644;23.284;2023-04-25T10:17:06;1.07;;;0.77;;
9228;SDS011;4649;42.644;23.284;2023-04-25T10:19:36;0.83;;;0.83;;
9228;SDS011;4649;42.644;23.284;2023-04-25T10:22:06;0.67;;;0.67;;
9228;SDS011;4649;42.644;23.284;2023-04-25T10:24:34;1.30;;;1.20;;
9228;SDS011;4649;42.644;23.284;2023-04-25T10:27:02;3.53;;;0.80;;
9228;SDS011;4649;42.644;23.284;2023-04-25T10:29:30;0.90;;;0.90;;
9228;SDS011;4649;42.644;23.284;2023-04-25T10:32:01;2.10;;;0.73;;
9228;SDS011;4649;42.644;23.284;2023-04-25T10:34:38;0.60;;;0.60;;
9228;SDS011;4649;42.644;23.284;2023-04-25T10:37:08;0.50;;;0.50;;
9228;SDS011;4649;42.644;23.284;2023-04-25T10:39:37;0.50;;;0.50;;
9228;SDS011;4649;42.644;23.284;2023-04-25T10:42:06;1.23;;;0.87;;
9228;SDS011;4649;42.644;23.284;2023-04-25T10:44:33;0.40;;;0.40;;
9228;SDS011;4649;42.644;23.284;2023-04-25T10:47:02;0.80;;;0.80;;
9228;SDS011;4649;42.644;23.284;2023-04-25T10:49:31;0.77;;;0.63;;
9228;SDS011;4649;42.644;23.284;2023-04-25T10:52:15;0.60;;;0.60;;
9228;SDS011;4649;42.644;23.284;2023-04-25T10:54:51;0.70;;;0.70;;
9228;SDS011;4649;42.644;23.284;2023-04-25T10:57:28;1.40;;;1.40;;
9228;SDS011;4649;42.644;23.284;2023-04-25T11:00:05;0.63;;;0.63;;
9228;SDS011;4649;42.644;23.284;2023-04-25T11:02:38;0.47;;;0.47;;
9228;SDS011;4649;42.644;23.284;2023-04-25T11:05:08;0.60;;;0.60;;
9228;SDS011;4649;42.644;23.284;2023-04-25T11:07:37;0.80;;;0.50;;
9228;SDS011;4649;42.644;23.284;2023-04-25T11:10:10;2.17;;;0.70;;
9228;SDS011;4649;42.644;23.284;2023-04-25T11:12:37;2.17;;;0.87;;
9228;SDS011;4649;42.644;23.284;2023-04-25T11:15:04;0.63;;;0.63;;
9228;SDS011;4649;42.644;23.284;2023-04-25T11:17:33;2.40;;;0.87;;
9228;SDS011;4649;42.644;23.284;2023-04-25T11:20:01;0.70;;;0.70;;
9228;SDS011;4649;42.644;23.284;2023-04-25T11:22:32;0.97;;;0.87;;
9228;SDS011;4649;42.644;23.284;2023-04-25T11:25:04;0.73;;;0.60;;
9228;SDS011;4649;42.644;23.284;2023-04-25T11:27:32;0.90;;;0.90;;
9228;SDS011;4649;42.644;23.284;2023-04-25T11:30:09;0.97;;;0.97;;
9228;SDS011;4649;42.644;23.284;2023-04-25T11:32:36;2.60;;;0.90;;
9228;SDS011;4649;42.644;23.284;2023-04-25T11:35:05;1.63;;;0.80;;
9228;SDS011;4649;42.644;23.284;2023-04-25T11:37:32;4.70;;;0.70;;
9228;SDS011;4649;42.644;23.284;2023-04-25T11:40:00;1.80;;;0.80;;
9228;SDS011;4649;42.644;23.284;2023-04-25T11:42:26;1.30;;;0.93;;
9228;SDS011;4649;42.644;23.284;2023-04-25T11:44:53;3.40;;;1.57;;
9228;SDS011;4649;42.644;23.284;2023-04-25T11:47:30;3.13;;;0.90;;
9228;SDS011;4649;42.644;23.284;2023-04-25T11:49:59;0.90;;;0.87;;
9228;SDS011;4649;42.644;23.284;2023-04-25T11:52:49;2.77;;;0.83;;
9228;SDS011;4649;42.644;23.284;2023-04-25T11:55:48;5.43;;;2.17;;
9228;SDS011;4649;42.644;23.284;2023-04-25T12:01:52;30.83;;;7.47;;
9228;SDS011;4649;42.644;23.284;2023-04-25T12:04:30;26.37;;;5.87;;
9228;SDS011;4649;42.644;23.284;2023-04-25T12:07:13;17.20;;;6.10;;
9228;SDS011;4649;42.644;23.284;2023-04-25T12:12:44;0.50;;;0.50;;
9228;SDS011;4649;42.644;23.284;2023-04-25T12:15:33;0.40;;;0.40;;
9228;SDS011;4649;42.644;23.284;2023-04-25T12:18:23;1.13;;;1.13;;
9228;SDS011;4649;42.644;23.284;2023-04-25T12:20:54;1.63;;;0.70;;
9228;SDS011;4649;42.644;23.284;2023-04-25T12:23:28;0.57;;;0.57;;
9228;SDS011;4649;42.644;23.284;2023-04-25T12:26:01;1.17;;;1.07;;
9228;SDS011;4649;42.644;23.284;2023-04-25T12:28:48;2.00;;;0.90;;
9228;SDS011;4649;42.644;23.284;2023-04-25T12:31:18;0.60;;;0.60;;
9228;SDS011;4649;42.644;23.284;2023-04-25T12:33:50;2.17;;;0.57;;
9228;SDS011;4649;42.644;23.284;2023-04-25T12:36:20;0.60;;;0.60;;
9228;SDS011;4649;42.644;23.284;2023-04-25T12:38:51;1.67;;;0.70;;
9228;SDS011;4649;42.644;23.284;2023-04-25T12:41:23;4.23;;;0.87;;
9228;SDS011;4649;42.644;23.284;2023-04-25T12:44:29;4.37;;;0.70;;
9228;SDS011;4649;42.644;23.284;2023-04-25T12:50:07;1.90;;;0.60;;
9228;SDS011;4649;42.644;23.284;2023-04-25T12:52:46;0.70;;;0.70;;
9228;SDS011;4649;42.644;23.284;2023-04-25T12:55:14;0.90;;;0.90;;
9228;SDS011;4649;42.644;23.284;2023-04-25T12:57:48;0.70;;;0.70;;
9228;SDS011;4649;42.644;23.284;2023-04-25T13:00:18;1.00;;;0.90;;
9228;SDS011;4649;42.644;23.284;2023-04-25T13:02:46;0.93;;;0.67;;
9228;SDS011;4649;42.644;23.284;2023-04-25T13:05:14;0.70;;;0.70;;
9228;SDS011;4649;42.644;23.284;2023-04-25T13:07:43;2.63;;;1.27;;
9228;SDS011;4649;42.644;23.284;2023-04-25T13:10:21;1.50;;;1.50;;
9228;SDS011;4649;42.644;23.284;2023-04-25T13:16:07;1.33;;;1.20;;
9228;SDS011;4649;42.644;23.284;2023-04-25T13:18:53;1.17;;;1.10;;
9228;SDS011;4649;42.644;23.284;2023-04-25T13:21:31;1.00;;;1.00;;
9228;SDS011;4649;42.644;23.284;2023-04-25T13:23:59;0.80;;;0.80;;
9228;SDS011;4649;42.644;23.284;2023-04-25T13:26:46;1.00;;;1.00;;
9228;SDS011;4649;42.644;23.284;2023-04-25T13:29:18;0.93;;;0.90;;
9228;SDS011;4649;42.644;23.284;2023-04-25T13:32:09;5.27;;;0.87;;
9228;SDS011;4649;42.644;23.284;2023-04-25T13:34:57;0.93;;;0.80;;
9228;SDS011;4649;42.644;23.284;2023-04-25T13:37:44;0.90;;;0.90;;
9228;SDS011;4649;42.644;23.284;2023-04-25T13:40:40;1.10;;;0.80;;
9228;SDS011;4649;42.644;23.284;2023-04-25T13:43:26;0.93;;;0.80;;
9228;SDS011;4649;42.644;23.284;2023-04-25T13:46:19;0.70;;;0.70;;
9228;SDS011;4649;42.644;23.284;2023-04-25T13:55:16;0.63;;;0.53;;
9228;SDS011;4649;42.644;23.284;2023-04-25T13:58:07;0.80;;;0.80;;
9228;SDS011;4649;42.644;23.284;2023-04-25T14:01:33;0.73;;;0.73;;
9228;SDS011;4649;42.644;23.284;2023-04-25T14:04:25;0.63;;;0.63;;
9228;SDS011;4649;42.644;23.284;2023-04-25T14:10:54;1.40;;;0.87;;
9228;SDS011;4649;42.644;23.284;2023-04-25T14:14:20;1.13;;;1.07;;
9228;SDS011;4649;42.644;23.284;2023-04-25T14:16:55;2.90;;;1.17;;
9228;SDS011;4649;42.644;23.284;2023-04-25T14:19:49;0.70;;;0.70;;
9228;SDS011;4649;42.644;23.284;2023-04-25T14:26:03;2.00;;;0.77;;
9228;SDS011;4649;42.644;23.284;2023-04-25T14:29:05;0.77;;;0.77;;
9228;SDS011;4649;42.644;23.284;2023-04-25T14:31:39;2.43;;;1.17;;
9228;SDS011;4649;42.644;23.284;2023-04-25T14:34:27;1.33;;;1.27;;
9228;SDS011;4649;42.644;23.284;2023-04-25T14:52:43;2.87;;;1.77;;
9228;SDS011;4649;42.644;23.284;2023-04-25T14:55:15;1.53;;;1.20;;
9228;SDS011;4649;42.644;23.284;2023-04-25T14:58:08;1.30;;;1.30;;
9228;SDS011;4649;42.644;23.284;2023-04-25T15:00:44;2.77;;;1.60;;
9228;SDS011;4649;42.644;23.284;2023-04-25T15:03:16;1.23;;;1.13;;
9228;SDS011;4649;42.644;23.284;2023-04-25T15:05:56;2.77;;;1.50;;
9228;SDS011;4649;42.644;23.284;2023-04-25T15:08:23;1.50;;;1.40;;
9228;SDS011;4649;42.644;23.284;2023-04-25T15:10:53;1.30;;;1.30;;
9228;SDS011;4649;42.644;23.284;2023-04-25T15:13:28;1.37;;;1.33;;
9228;SDS011;4649;42.644;23.284;2023-04-25T15:16:12;4.70;;;1.70;;
9228;SDS011;4649;42.644;23.284;2023-04-25T15:18:50;2.93;;;1.27;;
9228;SDS011;4649;42.644;23.284;2023-04-25T15:45:10;1.90;;;1.80;;
9228;SDS011;4649;42.644;23.284;2023-04-25T15:47:52;2.67;;;1.60;;
9228;SDS011;4649;42.644;23.284;2023-04-25T15:50:45;1.73;;;1.67;;
9228;SDS011;4649;42.644;23.284;2023-04-25T16:31:04;2.03;;;1.93;;
9228;SDS011;4649;42.644;23.284;2023-04-25T16:35:02;2.20;;;2.10;;
9228;SDS011;4649;42.644;23.284;2023-04-25T16:38:27;1.80;;;1.70;;
9228;SDS011;4649;42.644;23.284;2023-04-25T17:31:48;2.10;;;2.00;;
9228;SDS011;4649;42.644;23.284;2023-04-25T18:32:06;1.80;;;1.70;;
9228;SDS011;4649;42.644;23.284;2023-04-25T18:34:40;1.50;;;1.40;;
9228;SDS011;4649;42.644;23.284;2023-04-25T18:37:39;1.63;;;1.57;;
9228;SDS011;4649;42.644;23.284;2023-04-25T18:44:32;1.20;;;1.20;;
9228;SDS011;4649;42.644;23.284;2023-04-25T18:47:39;1.83;;;1.73;;
9228;SDS011;4649;42.644;23.284;2023-04-25T18:50:30;1.33;;;1.23;;
9228;SDS011;4649;42.644;23.284;2023-04-25T18:53:20;1.67;;;1.57;;
9228;SDS011;4649;42.644;23.284;2023-04-25T18:55:54;2.00;;;1.90;;
9228;SDS011;4649;42.644;23.284;2023-04-25T19:01:27;3.07;;;2.80;;
9228;SDS011;4649;42.644;23.284;2023-04-25T19:16:46;0.57;;;0.57;;
9228;SDS011;4649;42.644;23.284;2023-04-25T19:19:58;0.57;;;0.57;;
9228;SDS011;4649;42.644;23.284;2023-04-25T19:23:19;0.20;;;0.20;;
9228;SDS011;4649;42.644;23.284;2023-04-25T19:26:19;0.20;;;0.20;;
9228;SDS011;4649;42.644;23.284;2023-04-25T19:29:09;0.30;;;0.30;;
9228;SDS011;4649;42.644;23.284;2023-04-25T19:32:04;0.30;;;0.30;;
9228;SDS011;4649;42.644;23.284;2023-04-25T19:34:46;1.60;;;1.50;;
9228;SDS011;4649;42.644;23.284;2023-04-25T19:37:21;1.00;;;1.00;;
9228;SDS011;4649;42.644;23.284;2023-04-25T19:39:51;4.23;;;2.43;;
9228;SDS011;4649;42.644;23.284;2023-04-25T19:45:44;3.70;;;0.80;;
9228;SDS011;4649;42.644;23.284;2023-04-25T19:51:57;1.00;;;1.00;;
9228;SDS011;4649;42.644;23.284;2023-04-25T20:16:46;0.30;;;0.30;;
9228;SDS011;4649;42.644;23.284;2023-04-25T20:19:17;0.50;;;0.50;;
9228;SDS011;4649;42.644;23.284;2023-04-25T20:24:30;0.40;;;0.40;;
9228;SDS011;4649;42.644;23.284;2023-04-25T20:30:25;0.60;;;0.60;;
9228;SDS011;4649;42.644;23.284;2023-04-25T20:33:30;0.30;;;0.30;;
9228;SDS011;4649;42.644;23.284;2023-04-25T20:40:21;0.37;;;0.37;;
9228;SDS011;4649;42.644;23.284;2023-04-25T20:43:41;0.47;;;0.47;;
9228;SDS011;4649;42.644;23.284;2023-04-25T22:37:57;4.63;;;4.43;;
9228;SDS011;4649;42.644;23.284;2023-04-25T22:46:47;5.00;;;4.80;;
9228;SDS011;4649;42.644;23.284;2023-04-25T22:49:54;6.03;;;4.87;;
